createdAt,value
2019-05-07T00:00:29.013Z,0
2019-05-07T00:01:28.991Z,0
2019-05-07T00:02:29.035Z,0
2019-05-07T00:03:29.029Z,0
2019-05-07T00:04:29.022Z,0
2019-05-07T00:05:28.994Z,0
2019-05-07T00:06:29.106Z,0
2019-05-07T00:07:29.099Z,0
2019-05-07T00:08:29.101Z,0
2019-05-07T00:09:29.055Z,0
2019-05-07T00:10:29.029Z,0
2019-05-07T00:11:29.049Z,0
2019-05-07T00:12:29.034Z,0
2019-05-07T00:13:29.102Z,0
2019-05-07T00:14:29.031Z,0
2019-05-07T00:15:29.104Z,0
2019-05-07T00:16:29.044Z,0
2019-05-07T00:17:29.040Z,0
2019-05-07T00:18:29.102Z,0
2019-05-07T00:19:29.104Z,0
2019-05-07T00:20:29.035Z,0
2019-05-07T00:21:29.111Z,0
2019-05-07T00:22:29.096Z,0
2019-05-07T00:23:29.142Z,0
2019-05-07T00:24:29.143Z,0
2019-05-07T00:25:29.031Z,0
2019-05-07T00:26:29.145Z,0
2019-05-07T00:27:29.054Z,0
2019-05-07T00:28:29.021Z,0
2019-05-07T00:29:29.086Z,0
2019-05-07T00:30:29.131Z,0
2019-05-07T00:31:29.112Z,0
2019-05-07T00:32:29.128Z,0
2019-05-07T00:33:29.079Z,0
2019-05-07T00:34:29.133Z,0
2019-05-07T00:35:29.078Z,0
2019-05-07T00:36:29.132Z,0
2019-05-07T00:37:29.076Z,0
2019-05-07T00:38:29.140Z,0
2019-05-07T00:39:29.065Z,0
2019-05-07T00:40:29.148Z,0
2019-05-07T00:41:29.094Z,0
2019-05-07T00:42:29.041Z,0
2019-05-07T00:43:29.099Z,0
2019-05-07T00:44:29.019Z,0
2019-05-07T00:45:29.105Z,0
2019-05-07T00:46:29.074Z,0
2019-05-07T00:47:29.121Z,0
2019-05-07T00:48:29.108Z,0
2019-05-07T00:49:29.017Z,0
2019-05-07T00:50:28.997Z,0
2019-05-07T00:51:29.031Z,0
2019-05-07T00:52:29.099Z,0
2019-05-07T00:53:29.092Z,0
2019-05-07T00:54:29.153Z,0
2019-05-07T00:55:29.085Z,0
2019-05-07T00:56:29.102Z,0
2019-05-07T00:57:29.103Z,0
2019-05-07T00:58:29.176Z,0
2019-05-07T00:59:29.150Z,0
2019-05-07T01:00:29.101Z,0
2019-05-07T01:01:29.149Z,0
2019-05-07T01:02:29.133Z,0
2019-05-07T01:03:29.140Z,0
2019-05-07T01:04:29.144Z,0
2019-05-07T01:05:29.144Z,0
2019-05-07T01:06:29.076Z,0
2019-05-07T01:07:29.072Z,0
2019-05-07T01:08:29.070Z,0
2019-05-07T01:09:29.148Z,0
2019-05-07T01:10:29.140Z,0
2019-05-07T01:11:29.111Z,0
2019-05-07T01:12:29.183Z,0
2019-05-07T01:13:29.167Z,0
2019-05-07T01:14:29.110Z,0
2019-05-07T01:15:32.126Z,0
2019-05-07T01:16:29.118Z,0
2019-05-07T01:17:29.111Z,0
2019-05-07T01:18:29.044Z,0
2019-05-07T01:19:29.173Z,0
2019-05-07T01:20:29.133Z,0
2019-05-07T01:21:29.169Z,0
2019-05-07T01:22:29.092Z,0
2019-05-07T01:23:29.149Z,0
2019-05-07T01:24:29.153Z,0
2019-05-07T01:25:29.095Z,0
2019-05-07T01:26:29.089Z,0
2019-05-07T01:27:29.187Z,0
2019-05-07T01:28:29.150Z,0
2019-05-07T01:29:29.088Z,0
2019-05-07T01:30:29.153Z,0
2019-05-07T01:31:29.162Z,0
2019-05-07T01:32:29.104Z,0
2019-05-07T01:33:29.090Z,0
2019-05-07T01:34:29.158Z,0
2019-05-07T01:35:29.066Z,0
2019-05-07T01:36:29.153Z,0
2019-05-07T01:37:29.152Z,0
2019-05-07T01:38:29.050Z,0
2019-05-07T01:39:29.158Z,0
2019-05-07T01:40:29.090Z,0
2019-05-07T01:41:29.067Z,0
2019-05-07T01:42:29.126Z,0
2019-05-07T01:43:29.075Z,0
2019-05-07T01:44:29.163Z,0
2019-05-07T01:45:43.282Z,0
2019-05-07T01:46:29.207Z,0
2019-05-07T01:47:29.126Z,0
2019-05-07T01:48:29.171Z,0
2019-05-07T01:49:29.147Z,0
2019-05-07T01:50:29.070Z,0
2019-05-07T01:51:29.207Z,0
2019-05-07T01:52:29.211Z,0
2019-05-07T01:53:29.141Z,0
2019-05-07T01:54:29.201Z,0
2019-05-07T01:55:29.112Z,0
2019-05-07T01:56:29.241Z,0
2019-05-07T01:57:29.081Z,0
2019-05-07T01:58:29.148Z,0
2019-05-07T01:59:29.219Z,0
2019-05-07T02:00:29.088Z,0
2019-05-07T02:01:29.073Z,0
2019-05-07T02:02:29.118Z,0
2019-05-07T02:03:29.201Z,0
2019-05-07T02:04:29.163Z,0
2019-05-07T02:05:29.184Z,0
2019-05-07T02:06:29.189Z,0
2019-05-07T02:07:29.147Z,0
2019-05-07T02:08:29.187Z,0
2019-05-07T02:09:29.072Z,0
2019-05-07T02:10:29.121Z,0
2019-05-07T02:11:29.149Z,0
2019-05-07T02:12:29.210Z,0
2019-05-07T02:13:29.152Z,0
2019-05-07T02:14:29.140Z,0
2019-05-07T02:15:29.094Z,0
2019-05-07T02:16:29.075Z,0
2019-05-07T02:17:29.185Z,0
2019-05-07T02:18:29.239Z,0
2019-05-07T02:19:29.132Z,0
2019-05-07T02:20:29.177Z,0
2019-05-07T02:21:29.129Z,0
2019-05-07T02:22:29.176Z,0
2019-05-07T02:23:29.232Z,0
2019-05-07T02:24:29.165Z,0
2019-05-07T02:25:29.254Z,0
2019-05-07T02:26:29.167Z,0
2019-05-07T02:27:29.216Z,0
2019-05-07T02:28:29.234Z,0
2019-05-07T02:29:29.225Z,0
2019-05-07T02:30:29.168Z,0
2019-05-07T02:31:29.105Z,0
2019-05-07T02:32:29.220Z,0
2019-05-07T02:33:29.158Z,0
2019-05-07T02:34:29.172Z,0
2019-05-07T02:35:29.162Z,0
2019-05-07T02:36:29.189Z,0
2019-05-07T02:37:37.708Z,0
2019-05-07T02:38:29.247Z,0
2019-05-07T02:39:29.225Z,0
2019-05-07T02:40:29.239Z,0
2019-05-07T02:41:29.159Z,0
2019-05-07T02:42:29.237Z,0
2019-05-07T02:43:29.163Z,0
2019-05-07T02:44:29.172Z,0
2019-05-07T02:45:29.173Z,0
2019-05-07T02:46:31.884Z,0
2019-05-07T02:47:29.182Z,0
2019-05-07T02:48:29.190Z,0
2019-05-07T02:49:29.126Z,0
2019-05-07T02:50:29.178Z,0
2019-05-07T02:51:29.252Z,0
2019-05-07T02:52:29.202Z,0
2019-05-07T02:53:29.208Z,0
2019-05-07T02:54:29.107Z,0
2019-05-07T02:55:29.116Z,0
2019-05-07T02:56:29.148Z,0
2019-05-07T02:57:29.209Z,0
2019-05-07T02:58:29.103Z,0
2019-05-07T02:59:29.171Z,4
2019-05-07T03:00:29.133Z,4
2019-05-07T03:01:29.212Z,4
2019-05-07T03:02:29.105Z,0
2019-05-07T03:03:29.102Z,4
2019-05-07T03:04:29.213Z,4
2019-05-07T03:05:29.177Z,4
2019-05-07T03:06:29.167Z,8
2019-05-07T03:07:29.127Z,4
2019-05-07T03:08:29.131Z,8
2019-05-07T03:09:29.111Z,8
2019-05-07T03:10:29.222Z,12
2019-05-07T03:11:29.223Z,12
2019-05-07T03:12:29.169Z,12
2019-05-07T03:13:29.161Z,16
2019-05-07T03:14:29.233Z,20
2019-05-07T03:15:29.167Z,24
2019-05-07T03:16:40.088Z,24
2019-05-07T03:17:29.161Z,28
2019-05-07T03:18:29.175Z,32
2019-05-07T03:19:29.163Z,36
2019-05-07T03:20:29.172Z,40
2019-05-07T03:21:29.240Z,44
2019-05-07T03:22:29.272Z,56
2019-05-07T03:23:29.172Z,64
2019-05-07T03:24:29.238Z,72
2019-05-07T03:25:29.170Z,84
2019-05-07T03:26:29.270Z,96
2019-05-07T03:27:29.247Z,108
2019-05-07T03:28:29.186Z,120
2019-05-07T03:29:29.188Z,140
2019-05-07T03:30:29.268Z,160
2019-05-07T03:31:29.245Z,180
2019-05-07T03:32:29.259Z,204
2019-05-07T03:33:29.250Z,228
2019-05-07T03:34:29.326Z,256
2019-05-07T03:35:29.419Z,284
2019-05-07T03:36:29.314Z,312
2019-05-07T03:37:33.186Z,344
2019-05-07T03:38:29.177Z,372
2019-05-07T03:39:29.249Z,392
2019-05-07T03:40:29.180Z,412
2019-05-07T03:41:29.255Z,432
2019-05-07T03:42:29.289Z,460
2019-05-07T03:43:29.279Z,484
2019-05-07T03:44:29.271Z,512
2019-05-07T03:45:29.277Z,536
2019-05-07T03:46:29.193Z,576
2019-05-07T03:47:29.227Z,616
2019-05-07T03:48:29.216Z,660
2019-05-07T03:49:29.214Z,712
2019-05-07T03:50:29.281Z,784
2019-05-07T03:51:29.287Z,876
2019-05-07T03:52:29.167Z,988
2019-05-07T03:53:29.123Z,1080
2019-05-07T03:54:29.116Z,1140
2019-05-07T03:55:29.192Z,1208
2019-05-07T03:56:29.169Z,1312
2019-05-07T03:57:29.125Z,1440
2019-05-07T03:58:29.160Z,1544
2019-05-07T03:59:29.144Z,1652
2019-05-07T04:00:29.215Z,1780
2019-05-07T04:01:29.213Z,1916
2019-05-07T04:02:29.311Z,2052
2019-05-07T04:03:29.292Z,2172
2019-05-07T04:04:29.225Z,2316
2019-05-07T04:05:29.228Z,2476
2019-05-07T04:06:29.233Z,2624
2019-05-07T04:07:29.235Z,2736
2019-05-07T04:08:29.289Z,2796
2019-05-07T04:09:29.270Z,2864
2019-05-07T04:10:29.334Z,2988
2019-05-07T04:11:29.231Z,3156
2019-05-07T04:12:29.212Z,3304
2019-05-07T04:13:29.259Z,3476
2019-05-07T04:14:29.139Z,3744
2019-05-07T04:15:29.254Z,4044
2019-05-07T04:16:29.179Z,4064
2019-05-07T04:17:29.180Z,4172
2019-05-07T04:18:29.209Z,4564
2019-05-07T04:19:29.239Z,4816
2019-05-07T04:20:29.218Z,4832
2019-05-07T04:21:29.152Z,4780
2019-05-07T04:22:29.316Z,4820
2019-05-07T04:23:29.239Z,4944
2019-05-07T04:24:29.171Z,5296
2019-05-07T04:25:29.281Z,6016
2019-05-07T04:26:29.286Z,6532
2019-05-07T04:27:29.284Z,6620
2019-05-07T04:28:29.226Z,6796
2019-05-07T04:29:29.295Z,7128
2019-05-07T04:30:29.215Z,7536
2019-05-07T04:31:29.291Z,7896
2019-05-07T04:32:29.222Z,8192
2019-05-07T04:33:29.295Z,8308
2019-05-07T04:34:29.220Z,8396
2019-05-07T04:35:29.312Z,8596
2019-05-07T04:36:29.217Z,9108
2019-05-07T04:37:29.374Z,9716
2019-05-07T04:38:29.305Z,10168
2019-05-07T04:39:29.224Z,10404
2019-05-07T04:40:29.305Z,10556
2019-05-07T04:41:29.218Z,10540
2019-05-07T04:42:29.313Z,10480
2019-05-07T04:43:29.278Z,10572
2019-05-07T04:44:29.243Z,10848
2019-05-07T04:45:29.274Z,11296
2019-05-07T04:46:29.311Z,11708
2019-05-07T04:47:38.743Z,12072
2019-05-07T04:48:29.262Z,12476
2019-05-07T04:49:29.274Z,12588
2019-05-07T04:50:41.987Z,12788
2019-05-07T04:51:29.244Z,13072
2019-05-07T04:52:29.321Z,13384
2019-05-07T04:53:29.326Z,13572
2019-05-07T04:54:29.281Z,13756
2019-05-07T04:55:29.332Z,13996
2019-05-07T04:56:29.319Z,14440
2019-05-07T04:57:29.248Z,15148
2019-05-07T04:58:29.208Z,15888
2019-05-07T04:59:29.262Z,16728
2019-05-07T05:00:29.326Z,17720
2019-05-07T05:01:29.251Z,18608
2019-05-07T05:02:29.218Z,19520
2019-05-07T05:03:29.253Z,20484
2019-05-07T05:04:31.573Z,21696
2019-05-07T05:05:29.309Z,22784
2019-05-07T05:06:29.217Z,23776
2019-05-07T05:07:29.313Z,24416
2019-05-07T05:08:29.314Z,24640
2019-05-07T05:09:29.222Z,24640
2019-05-07T05:10:29.331Z,24480
2019-05-07T05:11:29.285Z,24256
2019-05-07T05:12:29.209Z,23776
2019-05-07T05:13:29.261Z,22624
2019-05-07T05:14:29.337Z,21632
2019-05-07T05:15:29.272Z,19980
2019-05-07T05:16:29.240Z,18716
2019-05-07T05:17:29.332Z,17380
2019-05-07T05:18:29.334Z,16528
2019-05-07T05:19:29.262Z,15984
2019-05-07T05:20:29.346Z,16196
2019-05-07T05:21:29.267Z,16392
2019-05-07T05:22:29.262Z,16240
2019-05-07T05:23:29.331Z,16164
2019-05-07T05:24:29.265Z,16336
2019-05-07T05:25:29.263Z,16948
2019-05-07T05:26:29.340Z,17592
2019-05-07T05:27:30.635Z,18768
2019-05-07T05:28:29.268Z,20304
2019-05-07T05:29:29.340Z,21824
2019-05-07T05:30:29.340Z,22464
2019-05-07T05:31:29.275Z,22304
2019-05-07T05:32:29.350Z,21760
2019-05-07T05:33:29.272Z,20204
2019-05-07T05:34:29.274Z,19476
2019-05-07T05:35:29.340Z,19616
2019-05-07T05:36:29.334Z,19760
2019-05-07T05:37:29.272Z,19316
2019-05-07T05:38:29.349Z,18408
2019-05-07T05:39:29.349Z,17796
2019-05-07T05:40:29.278Z,17912
2019-05-07T05:42:29.355Z,18320
2019-05-07T05:43:31.783Z,18704
2019-05-07T05:44:29.357Z,19448
2019-05-07T05:45:29.289Z,20584
2019-05-07T05:46:29.411Z,22816
2019-05-07T05:47:29.355Z,33344
2019-05-07T05:48:29.284Z,32416
2019-05-07T05:49:29.360Z,46656
2019-05-07T05:50:29.381Z,47040
2019-05-07T05:51:29.255Z,45792
2019-05-07T05:52:29.358Z,46464
2019-05-07T05:53:29.366Z,48256
2019-05-07T05:54:29.291Z,51200
2019-05-07T05:55:29.287Z,52416
2019-05-07T05:56:29.360Z,55808
2019-05-07T05:57:29.295Z,58656
2019-05-07T05:58:29.296Z,55744
2019-05-07T05:59:45.000Z,54816
2019-05-07T06:00:29.462Z,52512
2019-05-07T06:01:29.292Z,49248
2019-05-07T06:02:29.353Z,47072
2019-05-07T06:03:29.275Z,38016
2019-05-07T06:04:29.356Z,55808
2019-05-07T06:05:29.281Z,58688
2019-05-07T06:06:29.357Z,42880
2019-05-07T06:07:29.293Z,57312
2019-05-07T06:08:29.281Z,50784
2019-05-07T06:09:29.361Z,47104
2019-05-07T06:10:29.291Z,47680
2019-05-07T06:11:29.284Z,67072
2019-05-07T06:12:29.288Z,66912
2019-05-07T06:13:29.371Z,70336
2019-05-07T06:14:29.313Z,67296
2019-05-07T06:15:29.383Z,70176
2019-05-07T06:16:29.301Z,65792
2019-05-07T06:17:29.302Z,66656
2019-05-07T06:18:29.375Z,75360
2019-05-07T06:19:29.378Z,64160
2019-05-07T06:20:29.319Z,63232
2019-05-07T06:21:29.388Z,60832
2019-05-07T06:22:29.308Z,49984
2019-05-07T06:23:29.242Z,48832
2019-05-07T06:24:29.238Z,48128
2019-05-07T06:25:29.313Z,40448
2019-05-07T06:26:29.351Z,38208
2019-05-07T06:27:29.332Z,41472
2019-05-07T06:28:29.347Z,42816
2019-05-07T06:29:29.329Z,43456
2019-05-07T06:30:29.281Z,47552
2019-05-07T06:31:29.261Z,47744
2019-05-07T06:32:29.243Z,48352
2019-05-07T06:33:29.343Z,50176
2019-05-07T06:34:29.337Z,51808
2019-05-07T06:35:29.308Z,46912
2019-05-07T06:36:29.243Z,43136
2019-05-07T06:37:29.305Z,43392
2019-05-07T06:38:29.284Z,35296
2019-05-07T06:39:29.367Z,33792
2019-05-07T06:40:31.629Z,28192
2019-05-07T06:41:29.381Z,23552
2019-05-07T06:42:29.310Z,23232
2019-05-07T06:43:29.208Z,23616
2019-05-07T06:44:29.215Z,23520
2019-05-07T06:45:29.254Z,23392
2019-05-07T06:46:29.266Z,23808
2019-05-07T06:47:29.320Z,24832
2019-05-07T06:48:39.187Z,26240
2019-05-07T06:49:29.277Z,28160
2019-05-07T06:50:29.311Z,31776
2019-05-07T06:51:29.340Z,41888
2019-05-07T06:52:29.304Z,40608
2019-05-07T06:53:29.387Z,40992
2019-05-07T06:54:29.381Z,42080
2019-05-07T06:55:29.279Z,41280
2019-05-07T06:56:29.344Z,40064
2019-05-07T06:57:29.329Z,38656
2019-05-07T06:58:29.360Z,38400
2019-05-07T06:59:32.566Z,38496
2019-05-07T07:00:29.267Z,40064
2019-05-07T07:01:29.288Z,40352
2019-05-07T07:02:29.272Z,39584
2019-05-07T07:03:29.335Z,49600
2019-05-07T07:04:29.412Z,36768
2019-05-07T07:05:29.411Z,32992
2019-05-07T07:06:29.415Z,32416
2019-05-07T07:07:34.038Z,31264
2019-05-07T07:08:29.410Z,29952
2019-05-07T07:09:29.413Z,29760
2019-05-07T07:10:29.410Z,29696
2019-05-07T07:11:31.794Z,29056
2019-05-07T07:12:29.419Z,28224
2019-05-07T07:13:29.347Z,27360
2019-05-07T07:14:29.414Z,26720
2019-05-07T07:15:29.418Z,26272
2019-05-07T07:16:29.411Z,26240
2019-05-07T07:17:29.421Z,26048
2019-05-07T07:18:29.421Z,25632
2019-05-07T07:19:29.418Z,25472
2019-05-07T07:20:29.418Z,25504
2019-05-07T07:21:29.424Z,25472
2019-05-07T07:22:31.690Z,25376
2019-05-07T07:23:29.432Z,25120
2019-05-07T07:24:29.420Z,25024
2019-05-07T07:25:29.421Z,25120
2019-05-07T07:26:29.359Z,25280
2019-05-07T07:27:29.423Z,25408
2019-05-07T07:28:29.367Z,25504
2019-05-07T07:29:29.362Z,25632
2019-05-07T07:30:29.427Z,25920
2019-05-07T07:31:31.700Z,25856
2019-05-07T07:32:31.600Z,25984
2019-05-07T07:33:29.431Z,26368
2019-05-07T07:34:29.376Z,26976
2019-05-07T07:35:29.440Z,28352
2019-05-07T07:36:29.374Z,30112
2019-05-07T07:37:29.438Z,32128
2019-05-07T07:38:29.432Z,34144
2019-05-07T07:39:29.394Z,35296
2019-05-07T07:40:29.368Z,36576
2019-05-07T07:41:29.439Z,37792
2019-05-07T07:42:29.394Z,39776
2019-05-07T07:43:29.435Z,41888
2019-05-07T07:44:29.440Z,43648
2019-05-07T07:45:29.378Z,44928
2019-05-07T07:46:29.444Z,46240
2019-05-07T07:47:29.374Z,46816
2019-05-07T07:48:29.376Z,45056
2019-05-07T07:49:29.454Z,45408
2019-05-07T07:50:29.447Z,45984
2019-05-07T07:51:40.555Z,46304
2019-05-07T07:52:29.438Z,46048
2019-05-07T07:53:32.304Z,44896
2019-05-07T07:54:29.423Z,44064
2019-05-07T07:55:29.370Z,44096
2019-05-07T07:56:29.323Z,44928
2019-05-07T07:57:29.429Z,43008
2019-05-07T07:58:31.557Z,46720
2019-05-07T07:59:29.405Z,53312
2019-05-07T08:00:30.129Z,67360
2019-05-07T08:01:29.395Z,117344
2019-05-07T08:02:29.438Z,95904
2019-05-07T08:03:29.384Z,119392
2019-05-07T08:04:29.441Z,117248
2019-05-07T08:05:29.409Z,120608
2019-05-07T08:06:29.458Z,97920
2019-05-07T08:07:29.340Z,77248
2019-05-07T08:08:29.380Z,68672
2019-05-07T08:09:29.430Z,71136
2019-05-07T08:10:29.355Z,65184
2019-05-07T08:11:29.435Z,93632
2019-05-07T08:12:29.326Z,108608
2019-05-07T08:13:29.464Z,106112
2019-05-07T08:14:29.394Z,102176
2019-05-07T08:15:29.390Z,108288
2019-05-07T08:16:29.463Z,112128
2019-05-07T08:17:29.390Z,112800
2019-05-07T08:18:29.560Z,110880
2019-05-07T08:19:29.397Z,113920
2019-05-07T08:20:29.466Z,117696
2019-05-07T08:21:29.482Z,123296
2019-05-07T08:22:29.391Z,125024
2019-05-07T08:23:31.810Z,127648
2019-05-07T08:24:29.397Z,126432
2019-05-07T08:25:29.470Z,125952
2019-05-07T08:26:29.474Z,125760
2019-05-07T08:27:29.458Z,127392
2019-05-07T08:28:31.777Z,128704
2019-05-07T08:29:29.469Z,132352
2019-05-07T08:30:29.491Z,132384
2019-05-07T08:31:29.474Z,130464
2019-05-07T08:32:29.480Z,129056
2019-05-07T08:33:29.474Z,128608
2019-05-07T08:34:29.473Z,125824
2019-05-07T08:35:29.491Z,120576
2019-05-07T08:36:29.364Z,122784
2019-05-07T08:37:29.473Z,119744
2019-05-07T08:38:30.027Z,76512
2019-05-07T08:39:29.420Z,90368
2019-05-07T08:40:29.478Z,129920
2019-05-07T08:41:31.765Z,135904
2019-05-07T08:42:29.484Z,140064
2019-05-07T08:43:29.429Z,142432
2019-05-07T08:44:29.481Z,143488
2019-05-07T08:45:29.613Z,130528
2019-05-07T08:46:29.644Z,115424
2019-05-07T08:47:29.485Z,84032
2019-05-07T08:48:29.496Z,66016
2019-05-07T08:49:36.841Z,63904
2019-05-07T08:50:29.487Z,63168
2019-05-07T08:51:29.382Z,61792
2019-05-07T08:52:29.489Z,57664
2019-05-07T08:53:29.420Z,52672
2019-05-07T08:54:29.416Z,48128
2019-05-07T08:55:29.479Z,43520
2019-05-07T08:56:29.380Z,40576
2019-05-07T08:57:31.709Z,38528
2019-05-07T08:58:31.604Z,36736
2019-05-07T08:59:31.734Z,35296
2019-05-07T09:00:29.482Z,34112
2019-05-07T09:01:29.376Z,32672
2019-05-07T09:02:29.395Z,31584
2019-05-07T09:03:29.492Z,30976
2019-05-07T09:04:29.501Z,30944
2019-05-07T09:05:29.386Z,31616
2019-05-07T09:06:29.431Z,32576
2019-05-07T09:07:29.497Z,33344
2019-05-07T09:08:29.495Z,34240
2019-05-07T09:09:29.500Z,36160
2019-05-07T09:10:29.507Z,38464
2019-05-07T09:11:29.498Z,40992
2019-05-07T09:12:31.705Z,43584
2019-05-07T09:13:29.532Z,45888
2019-05-07T09:14:31.519Z,48032
2019-05-07T09:15:29.443Z,50784
2019-05-07T09:16:31.822Z,54912
2019-05-07T09:17:29.441Z,61408
2019-05-07T09:18:29.439Z,69632
2019-05-07T09:19:29.513Z,79872
2019-05-07T09:20:29.438Z,120064
2019-05-07T09:21:29.500Z,87072
2019-05-07T09:22:29.438Z,90976
2019-05-07T09:23:31.700Z,111424
2019-05-07T09:24:29.498Z,103200
2019-05-07T09:25:29.496Z,125248
2019-05-07T09:26:29.431Z,136160
2019-05-07T09:27:29.433Z,160128
2019-05-07T09:28:29.385Z,154592
2019-05-07T09:29:29.426Z,120416
2019-05-07T09:30:29.430Z,93440
2019-05-07T09:31:29.431Z,77856
2019-05-07T09:32:29.508Z,64512
2019-05-07T09:33:29.442Z,61344
2019-05-07T09:34:29.453Z,60032
2019-05-07T09:35:29.456Z,60032
2019-05-07T09:36:29.520Z,61728
2019-05-07T09:37:29.533Z,68352
2019-05-07T09:38:29.528Z,74144
2019-05-07T09:39:29.520Z,79872
2019-05-07T09:40:29.484Z,110432
2019-05-07T09:41:29.523Z,67552
2019-05-07T09:42:29.546Z,62016
2019-05-07T09:43:29.439Z,58112
2019-05-07T09:44:29.512Z,55584
2019-05-07T09:45:29.441Z,52224
2019-05-07T09:46:29.517Z,52256
2019-05-07T09:47:29.516Z,53504
2019-05-07T09:48:29.453Z,56224
2019-05-07T09:49:29.446Z,60288
2019-05-07T09:50:29.458Z,103520
2019-05-07T09:51:29.517Z,84480
2019-05-07T09:52:29.433Z,79616
2019-05-07T09:53:29.525Z,84128
2019-05-07T09:54:29.476Z,71648
2019-05-07T09:55:29.449Z,71008
2019-05-07T09:56:29.445Z,75488
2019-05-07T09:57:31.551Z,64704
2019-05-07T09:58:36.614Z,56480
2019-05-07T09:59:29.456Z,50080
2019-05-07T10:00:29.448Z,46656
2019-05-07T10:01:31.429Z,45664
2019-05-07T10:02:29.546Z,46784
2019-05-07T10:03:29.471Z,49184
2019-05-07T10:04:29.471Z,52352
2019-05-07T10:05:29.542Z,54464
2019-05-07T10:06:29.473Z,55392
2019-05-07T10:07:29.565Z,60384
2019-05-07T10:08:31.697Z,57152
2019-05-07T10:09:29.483Z,57056
2019-05-07T10:10:29.476Z,57952
2019-05-07T10:11:29.476Z,59296
2019-05-07T10:12:29.479Z,61696
2019-05-07T10:13:29.544Z,62624
2019-05-07T10:14:29.542Z,61664
2019-05-07T10:15:29.477Z,60576
2019-05-07T10:16:29.545Z,60096
2019-05-07T10:17:29.479Z,59488
2019-05-07T10:18:29.482Z,58272
2019-05-07T10:19:29.487Z,58944
2019-05-07T10:20:29.573Z,60928
2019-05-07T10:21:29.478Z,62912
2019-05-07T10:22:31.979Z,67456
2019-05-07T10:23:29.482Z,81664
2019-05-07T10:24:29.442Z,178144
2019-05-07T10:25:29.444Z,178720
2019-05-07T10:26:29.429Z,71840
2019-05-07T10:27:29.447Z,70496
2019-05-07T10:28:29.540Z,133120
2019-05-07T10:29:29.544Z,90848
2019-05-07T10:30:29.519Z,88352
2019-05-07T10:31:31.868Z,108768
2019-05-07T10:32:29.450Z,168544
2019-05-07T10:33:29.471Z,162944
2019-05-07T10:34:29.550Z,152576
2019-05-07T10:35:31.663Z,151520
2019-05-07T10:36:29.554Z,66720
2019-05-07T10:37:31.663Z,70496
2019-05-07T10:38:29.561Z,149088
2019-05-07T10:39:29.531Z,142656
2019-05-07T10:40:29.565Z,168448
2019-05-07T10:41:31.724Z,167296
2019-05-07T10:42:29.496Z,171968
2019-05-07T10:43:29.571Z,166752
2019-05-07T10:44:29.469Z,175552
2019-05-07T10:46:29.516Z,83232
2019-05-07T10:47:29.558Z,95936
2019-05-07T10:48:29.566Z,119616
2019-05-07T10:49:31.672Z,136128
2019-05-07T10:50:38.026Z,153152
2019-05-07T10:51:29.474Z,69760
2019-05-07T10:52:31.439Z,71168
2019-05-07T10:53:29.494Z,160928
2019-05-07T10:54:29.577Z,159456
2019-05-07T10:55:29.506Z,145696
2019-05-07T10:56:29.509Z,149088
2019-05-07T10:57:29.579Z,152256
2019-05-07T10:58:29.518Z,152032
2019-05-07T10:59:29.577Z,153248
2019-05-07T11:00:29.511Z,155552
2019-05-07T11:01:29.507Z,160960
2019-05-07T11:02:29.582Z,153760
2019-05-07T11:03:29.583Z,166816
2019-05-07T11:04:40.106Z,166144
2019-05-07T11:05:29.519Z,132704
2019-05-07T11:06:29.516Z,113920
2019-05-07T11:07:29.584Z,142144
2019-05-07T11:08:29.565Z,72192
2019-05-07T11:09:29.516Z,75040
2019-05-07T11:10:29.586Z,151712
2019-05-07T11:11:31.762Z,132032
2019-05-07T11:12:31.805Z,134976
2019-05-07T11:13:29.522Z,166912
2019-05-07T11:14:29.469Z,176992
2019-05-07T11:15:29.456Z,80192
2019-05-07T11:16:29.451Z,80128
2019-05-07T11:17:29.535Z,111424
2019-05-07T11:18:29.510Z,96896
2019-05-07T11:19:29.474Z,86688
2019-05-07T11:20:30.019Z,74912
2019-05-07T11:21:29.546Z,75744
2019-05-07T11:22:29.456Z,70816
2019-05-07T11:23:29.509Z,69024
2019-05-07T11:24:29.598Z,71232
2019-05-07T11:25:29.603Z,73376
2019-05-07T11:26:29.606Z,83456
2019-05-07T11:27:29.597Z,171808
2019-05-07T11:28:29.535Z,183712
2019-05-07T11:29:29.605Z,166336
2019-05-07T11:30:29.608Z,176128
2019-05-07T11:31:29.552Z,173120
2019-05-07T11:32:29.604Z,175680
2019-05-07T11:33:29.602Z,119872
2019-05-07T11:34:29.642Z,139776
2019-05-07T11:35:31.701Z,55104
2019-05-07T11:36:29.533Z,45824
2019-05-07T11:37:29.577Z,44864
2019-05-07T11:38:29.607Z,60000
2019-05-07T11:39:29.617Z,51712
2019-05-07T11:40:32.235Z,48000
2019-05-07T11:41:29.541Z,51904
2019-05-07T11:42:29.618Z,88288
2019-05-07T11:43:29.611Z,51040
2019-05-07T11:44:29.564Z,54656
2019-05-07T11:45:29.534Z,59392
2019-05-07T11:46:29.602Z,55776
2019-05-07T11:47:31.726Z,52128
2019-05-07T11:48:29.542Z,49952
2019-05-07T11:49:29.538Z,49408
2019-05-07T11:50:29.516Z,47264
2019-05-07T11:51:29.530Z,46112
2019-05-07T11:52:32.321Z,46208
2019-05-07T11:53:29.507Z,47136
2019-05-07T11:54:31.679Z,47552
2019-05-07T11:55:29.575Z,47264
2019-05-07T11:56:29.552Z,48224
2019-05-07T11:57:29.535Z,49856
2019-05-07T11:58:29.553Z,54816
2019-05-07T11:59:29.480Z,156640
2019-05-07T12:00:29.525Z,66176
2019-05-07T12:01:43.049Z,63872
2019-05-07T12:02:31.917Z,121536
2019-05-07T12:03:29.503Z,60384
2019-05-07T12:04:31.872Z,59904
2019-05-07T12:05:29.618Z,62592
2019-05-07T12:06:29.543Z,69120
2019-05-07T12:07:29.619Z,169120
2019-05-07T12:08:39.363Z,175136
2019-05-07T12:09:29.553Z,177696
2019-05-07T12:10:29.620Z,163392
2019-05-07T12:11:29.544Z,76416
2019-05-07T12:12:29.618Z,67680
2019-05-07T12:13:29.624Z,62176
2019-05-07T12:14:32.575Z,57568
2019-05-07T12:15:29.563Z,53344
2019-05-07T12:16:31.837Z,50464
2019-05-07T12:17:31.556Z,50240
2019-05-07T12:18:31.744Z,51264
2019-05-07T12:19:29.574Z,51424
2019-05-07T12:20:29.586Z,50496
2019-05-07T12:21:29.567Z,50464
2019-05-07T12:22:29.578Z,53760
2019-05-07T12:23:29.642Z,115360
2019-05-07T12:24:29.658Z,73120
2019-05-07T12:25:31.828Z,91648
2019-05-07T12:26:29.557Z,95296
2019-05-07T12:27:29.631Z,78240
2019-05-07T12:28:29.558Z,77824
2019-05-07T12:29:29.592Z,76032
2019-05-07T12:30:29.632Z,80448
2019-05-07T12:31:29.641Z,88064
2019-05-07T12:32:29.638Z,87008
2019-05-07T12:33:29.577Z,103424
2019-05-07T12:34:31.762Z,111456
2019-05-07T12:35:29.576Z,88352
2019-05-07T12:36:31.891Z,82592
2019-05-07T12:37:29.581Z,99072
2019-05-07T12:38:29.581Z,76256
2019-05-07T12:39:31.696Z,73600
2019-05-07T12:40:29.660Z,70432
2019-05-07T12:41:29.675Z,67104
2019-05-07T12:42:29.668Z,63648
2019-05-07T12:43:31.771Z,60544
2019-05-07T12:44:31.868Z,57984
2019-05-07T12:45:29.571Z,56000
2019-05-07T12:46:29.659Z,54240
2019-05-07T12:47:29.583Z,52768
2019-05-07T12:48:29.589Z,51392
2019-05-07T12:49:29.654Z,50368
2019-05-07T12:50:29.648Z,49760
2019-05-07T12:51:34.477Z,49056
2019-05-07T12:52:29.582Z,48064
2019-05-07T12:53:31.437Z,46976
2019-05-07T12:54:29.578Z,45696
2019-05-07T12:55:29.645Z,44544
2019-05-07T12:56:29.567Z,43552
2019-05-07T12:57:29.655Z,42560
2019-05-07T12:58:29.659Z,41536
2019-05-07T12:59:29.657Z,40640
2019-05-07T13:00:29.591Z,39680
2019-05-07T13:01:29.570Z,38592
2019-05-07T13:02:38.119Z,37376
2019-05-07T13:03:29.593Z,36448
2019-05-07T13:04:29.680Z,35904
2019-05-07T13:05:29.607Z,35648
2019-05-07T13:06:29.601Z,35456
2019-05-07T13:07:29.668Z,35200
2019-05-07T13:08:29.636Z,35200
2019-05-07T13:09:29.604Z,34912
2019-05-07T13:10:29.674Z,34752
2019-05-07T13:11:29.676Z,34496
2019-05-07T13:12:29.611Z,34400
2019-05-07T13:13:31.840Z,34752
2019-05-07T13:14:29.639Z,35584
2019-05-07T13:15:29.668Z,37248
2019-05-07T13:16:29.592Z,38912
2019-05-07T13:17:29.640Z,41184
2019-05-07T13:18:29.580Z,43392
2019-05-07T13:19:29.676Z,45984
2019-05-07T13:20:31.908Z,48896